Time;durP1;ratioP1;P1;durP2;ratioP2;P2;SDS_P1;SDS_P2;PMS_P1;PMS_P2;Temp;Humidity;BMP_temperature;BMP_pressure;BME280_temperature;BME280_humidity;BME280_pressure;Samples;Min_cycle;Max_cycle;Signal;HPM_P1;HPM_P2
2023/07/13 14:27:57;;;;;;;3.38;1.58;;;27.60;23.20;;;;;;6229202;22;20218;-93
2023/07/13 14:30:24;;;;;;;1.20;1.08;;;27.70;23.90;;;;;;6247149;23;20183;-92
2023/07/13 14:32:51;;;;;;;2.50;1.40;;;27.60;24.10;;;;;;6247533;23;20192;-91
2023/07/13 14:35:20;;;;;;;2.08;1.30;;;27.70;23.50;;;;;;6247415;23;20226;-91
2023/07/13 14:37:47;;;;;;;2.63;2.13;;;27.70;24.70;;;;;;6246881;23;20173;-93
2023/07/13 14:40:16;;;;;;;4.78;1.90;;;27.90;25.30;;;;;;6247360;23;20233;-92
2023/07/13 14:42:43;;;;;;;9.40;4.50;;;28.00;26.60;;;;;;6247703;23;20219;-91
2023/07/13 14:45:16;;;;;;;13.70;10.90;;;28.10;27.20;;;;;;6247018;23;20164;-91
2023/07/13 14:47:44;;;;;;;3.90;2.97;;;28.20;26.80;;;;;;6246999;23;20547;-93
2023/07/13 14:50:16;;;;;;;11.38;9.00;;;28.40;27.40;;;;;;6246963;23;20503;-91
2023/07/13 14:52:44;;;;;;;20.88;17.88;;;28.70;27.20;;;;;;6247374;23;20188;-91
2023/07/13 14:55:13;;;;;;;3.92;3.30;;;28.90;25.60;;;;;;6247609;23;20173;-92
2023/07/13 14:57:40;;;;;;;2.63;1.40;;;28.90;27.20;;;;;;6246963;23;20177;-92
2023/07/13 15:00:17;;;;;;;3.17;1.40;;;28.80;24.20;;;;;;6247153;23;20230;-92
2023/07/13 15:02:46;;;;;;;6.18;5.35;;;28.80;26.30;;;;;;6247057;23;20156;-93
2023/07/13 15:05:19;;;;;;;2.40;1.58;;;29.00;26.40;;;;;;6247331;23;20172;-92
2023/07/13 15:07:46;;;;;;;4.35;1.70;;;29.20;23.20;;;;;;6247063;23;20206;-91
2023/07/13 15:10:15;;;;;;;3.10;1.70;;;29.20;23.30;;;;;;6247756;23;20172;-92
2023/07/13 15:12:42;;;;;;;3.35;2.05;;;29.00;22.80;;;;;;6247082;23;20184;-91
2023/07/13 15:15:09;;;;;;;1.92;1.40;;;28.90;23.30;;;;;;6247432;23;20713;-91
2023/07/13 15:17:40;;;;;;;4.05;1.60;;;28.80;21.80;;;;;;6247178;23;20172;-93
2023/07/13 15:20:18;;;;;;;6.80;6.10;;;28.60;22.50;;;;;;6246890;23;20157;-91
2023/07/13 15:22:46;;;;;;;2.70;2.50;;;28.50;22.30;;;;;;6247885;23;20206;-90
2023/07/13 15:25:17;;;;;;;2.83;1.75;;;28.40;23.10;;;;;;6248988;23;20226;-91
2023/07/13 15:27:44;;;;;;;4.55;2.17;;;28.30;22.10;;;;;;6248126;23;20192;-91
2023/07/13 15:30:12;;;;;;;3.67;2.00;;;28.20;21.30;;;;;;6249001;23;20222;-91
2023/07/13 15:32:42;;;;;;;2.25;1.60;;;28.20;22.60;;;;;;6248837;23;20176;-92
2023/07/13 15:35:15;;;;;;;2.05;1.60;;;28.30;21.50;;;;;;6248473;23;20688;-91
2023/07/13 15:37:43;;;;;;;1.70;1.42;;;28.60;21.90;;;;;;6245394;23;20157;-94
2023/07/13 15:40:13;;;;;;;2.78;2.33;;;28.70;20.40;;;;;;6245600;23;20173;-92
2023/07/13 15:42:41;;;;;;;3.35;1.90;;;28.60;39.60;;;;;;6248290;23;20247;-93
2023/07/13 15:45:17;;;;;;;2.67;2.20;;;28.50;20.60;;;;;;6248281;23;20697;-93
2023/07/13 15:47:46;;;;;;;6.05;2.47;;;28.30;20.50;;;;;;6248059;23;20235;-92
2023/07/13 15:50:15;;;;;;;2.95;1.77;;;28.30;20.20;;;;;;6247194;23;20227;-93
2023/07/13 15:52:43;;;;;;;2.63;2.00;;;28.30;20.70;;;;;;6247527;23;20178;-93
2023/07/13 15:55:13;;;;;;;5.00;2.40;;;28.30;20.70;;;;;;6247424;23;20960;-92
2023/07/13 15:57:41;;;;;;;2.60;1.85;;;28.40;19.60;;;;;;6247876;23;20176;-93
2023/07/13 16:00:20;;;;;;;2.67;1.80;;;28.40;20.20;;;;;;6248179;23;20173;-92
2023/07/13 16:02:49;;;;;;;2.85;1.70;;;28.40;20.20;;;;;;6249608;23;20152;-93
2023/07/13 16:05:16;;;;;;;3.58;1.58;;;28.40;19.90;;;;;;6249332;23;20255;-92
2023/07/13 16:07:45;;;;;;;2.95;1.60;;;28.40;21.00;;;;;;6249003;23;20247;-93
2023/07/13 16:10:16;;;;;;;2.15;1.40;;;28.20;20.70;;;;;;6249268;23;20168;-93
2023/07/13 16:12:44;;;;;;;2.53;1.50;;;28.20;21.40;;;;;;6248524;23;20255;-93
2023/07/13 16:15:16;;;;;;;2.72;1.50;;;28.20;19.60;;;;;;6248776;23;20230;-92
2023/07/13 16:17:43;;;;;;;1.45;1.30;;;28.30;19.10;;;;;;6248063;23;20228;-92
2023/07/13 16:20:13;;;;;;;3.22;1.40;;;28.30;18.40;;;;;;6248559;23;20172;-92
2023/07/13 16:22:41;;;;;;;2.08;1.27;;;28.20;18.40;;;;;;6248579;23;20177;-92
2023/07/13 16:25:19;;;;;;;2.90;1.77;;;28.00;18.50;;;;;;6248737;23;20168;-92
2023/07/13 16:27:47;;;;;;;2.35;1.58;;;27.80;19.60;;;;;;6248093;23;20196;-91
2023/07/13 16:30:17;;;;;;;3.45;1.80;;;27.60;19.40;;;;;;6248319;23;20203;-92
2023/07/13 16:32:44;;;;;;;2.70;1.70;;;27.40;17.00;;;;;;6248305;23;20163;-93
2023/07/13 16:35:15;;;;;;;4.65;1.70;;;27.30;17.90;;;;;;6248187;23;20552;-92
2023/07/13 16:37:43;;;;;;;4.05;1.70;;;27.50;19.00;;;;;;6248291;23;20603;-93
2023/07/13 16:40:26;;;;;;;5.32;1.80;;;27.80;18.60;;;;;;6248761;23;20219;-92
2023/07/13 16:42:55;;;;;;;2.33;1.80;;;27.70;18.30;;;;;;6248463;23;20599;-92
2023/07/13 16:45:24;;;;;;;3.03;1.88;;;27.50;18.70;;;;;;6248471;23;20169;-93
2023/07/13 16:47:53;;;;;;;3.53;1.70;;;27.30;19.40;;;;;;6249132;23;20160;-92
2023/07/13 16:50:22;;;;;;;3.45;1.83;;;27.10;19.60;;;;;;6248592;23;20195;-93
2023/07/13 16:52:51;;;;;;;4.25;1.80;;;27.00;27.90;;;;;;6248110;23;20242;-92
2023/07/13 16:55:22;;;;;;;4.28;1.90;;;27.40;20.40;;;;;;6248457;23;20172;-93
2023/07/13 16:57:49;;;;;;;2.97;1.88;;;27.90;22.00;;;;;;6248166;23;20163;-91
2023/07/13 17:00:27;;;;;;;2.80;1.70;;;28.10;20.90;;;;;;6248420;23;20626;-92
2023/07/13 17:03:01;;;;;;;3.80;1.90;;;28.00;20.60;;;;;;6248575;23;20152;-91
2023/07/13 17:05:30;;;;;;;8.15;2.60;;;27.90;22.20;;;;;;6248118;23;20166;-91
2023/07/13 17:07:58;;;;;;;8.48;3.88;;;27.70;24.50;;;;;;6248270;23;20175;-91
2023/07/13 17:10:25;;;;;;;14.30;5.68;;;27.50;24.70;;;;;;6248154;23;20226;-91
2023/07/13 17:12:54;;;;;;;15.18;9.80;;;27.20;26.00;;;;;;6247955;23;20168;-90
2023/07/13 17:15:24;;;;;;;9.85;4.65;;;26.90;27.40;;;;;;6247497;23;20188;-91
2023/07/13 17:17:51;;;;;;;3.88;2.38;;;26.50;27.90;;;;;;6248167;23;20172;-92
2023/07/13 17:20:23;;;;;;;3.70;2.25;;;26.30;28.40;;;;;;6248448;23;20172;-91
2023/07/13 17:22:53;;;;;;;2.45;1.92;;;26.10;29.60;;;;;;6247939;23;20160;-92
2023/07/13 17:25:21;;;;;;;3.17;2.13;;;26.00;29.60;;;;;;6248211;23;20564;-92
2023/07/13 17:27:48;;;;;;;4.38;2.13;;;25.90;32.70;;;;;;6248271;23;20200;-92
2023/07/13 17:30:17;;;;;;;3.53;2.15;;;26.10;35.90;;;;;;6247867;23;20173;-92
2023/07/13 17:32:45;;;;;;;2.13;1.80;;;26.10;31.50;;;;;;6247972;23;20555;-92
2023/07/13 17:35:25;;;;;;;2.85;1.80;;;26.10;32.10;;;;;;6248276;23;20199;-92
2023/07/13 17:37:56;;;;;;;2.85;1.80;;;25.90;30.30;;;;;;6248022;23;20156;-92
2023/07/13 17:40:23;;;;;;;2.42;1.70;;;25.80;30.90;;;;;;6248036;23;20591;-92
2023/07/13 17:42:54;;;;;;;3.05;1.80;;;25.90;30.80;;;;;;6248381;23;20183;-91
2023/07/13 17:45:22;;;;;;;3.30;1.63;;;26.10;31.60;;;;;;6248173;23;20148;-92
2023/07/13 17:47:53;;;;;;;2.47;1.80;;;26.10;31.70;;;;;;6247944;23;20173;-92
2023/07/13 17:50:32;;;;;;;2.95;1.88;;;26.20;33.40;;;;;;6248439;23;20259;-93
2023/07/13 17:53:02;;;;;;;2.08;1.70;;;26.70;32.10;;;;;;6248211;23;20235;-93
2023/07/13 17:55:30;;;;;;;2.17;1.80;;;27.00;31.10;;;;;;6247848;23;20704;-93
2023/07/13 17:57:57;;;;;;;2.35;1.67;;;27.00;32.00;;;;;;6247492;23;20172;-93
2023/07/13 18:00:35;;;;;;;2.17;1.85;;;27.10;29.60;;;;;;6248251;23;20183;-92
2023/07/13 18:03:05;;;;;;;4.00;1.92;;;27.00;28.50;;;;;;6247651;23;20160;-92
2023/07/13 18:05:34;;;;;;;2.90;1.90;;;26.80;28.30;;;;;;6247923;23;20210;-92
2023/07/13 18:08:04;;;;;;;3.45;1.95;;;26.60;28.90;;;;;;6247975;23;20258;-92
2023/07/13 18:10:32;;;;;;;3.10;2.00;;;26.60;30.90;;;;;;6247603;23;20237;-92
2023/07/13 18:13:00;;;;;;;2.22;1.70;;;26.70;29.40;;;;;;6247167;23;20168;-92
2023/07/13 18:15:31;;;;;;;2.95;2.13;;;26.30;28.10;;;;;;6246977;23;20199;-92
2023/07/13 18:18:00;;;;;;;2.65;1.98;;;25.90;29.10;;;;;;6247523;23;20235;-91
2023/07/13 18:20:27;;;;;;;2.40;2.00;;;25.40;29.20;;;;;;6247280;23;20169;-91
2023/07/13 18:22:54;;;;;;;2.67;1.95;;;25.10;29.10;;;;;;6247563;23;20173;-92
2023/07/13 18:25:24;;;;;;;2.33;2.00;;;24.80;28.60;;;;;;6247081;23;20168;-92
2023/07/13 18:27:52;;;;;;;4.20;2.10;;;24.60;28.70;;;;;;6247531;23;20666;-93
2023/07/13 18:30:20;;;;;;;3.30;2.00;;;24.40;29.70;;;;;;6247262;23;20207;-92
2023/07/13 18:32:50;;;;;;;4.43;2.17;;;24.20;29.10;;;;;;6247364;23;20227;-92
2023/07/13 18:35:22;;;;;;;5.20;2.17;;;24.10;29.80;;;;;;6246983;23;20188;-91
2023/07/13 18:37:49;;;;;;;3.00;2.10;;;24.00;29.80;;;;;;6247586;23;20212;-92
2023/07/13 18:40:18;;;;;;;3.83;2.22;;;23.90;29.80;;;;;;6246939;23;20195;-92
2023/07/13 18:42:48;;;;;;;6.60;2.35;;;23.80;32.30;;;;;;6247061;23;20172;-93
2023/07/13 18:45:17;;;;;;;6.55;4.00;;;23.80;31.90;;;;;;6247163;23;20153;-92
2023/07/13 18:47:46;;;;;;;227.70;91.22;;;23.70;32.20;;;;;;6247290;23;20618;-91
2023/07/13 18:50:18;;;;;;;46.00;36.13;;;23.60;34.60;;;;;;6247362;23;20168;-92
2023/07/13 18:52:46;;;;;;;10.60;6.88;;;23.40;36.60;;;;;;6246831;23;20168;-91
2023/07/13 18:55:15;;;;;;;4.38;1.90;;;23.20;37.20;;;;;;6246615;23;20185;-92
2023/07/13 18:57:42;;;;;;;2.67;1.60;;;23.00;38.80;;;;;;6247385;23;20206;-91
2023/07/13 19:00:12;;;;;;;6.13;1.67;;;22.80;62.30;;;;;;6246539;23;20701;-92
2023/07/13 19:02:39;;;;;;;4.55;1.92;;;22.50;45.60;;;;;;6246420;23;20164;-90
2023/07/13 19:05:15;;;;;;;4.15;1.95;;;22.30;46.50;;;;;;6246658;23;20165;-91
2023/07/13 19:07:42;;;;;;;3.58;1.65;;;22.10;48.60;;;;;;6247124;23;20191;-90
2023/07/13 19:10:15;;;;;;;5.10;1.67;;;21.90;52.80;;;;;;6246610;23;20175;-91
2023/07/13 19:12:45;;;;;;;3.97;1.50;;;21.80;58.30;;;;;;6246956;23;20160;-90
2023/07/13 19:15:21;;;;;;;5.68;2.25;;;21.70;66.70;;;;;;6246798;23;20172;-90
2023/07/13 19:17:49;;;;;;;3.20;1.60;;;21.60;75.90;;;;;;6247014;23;20156;-92
2023/07/13 19:20:22;;;;;;;3.45;2.20;;;21.50;86.90;;;;;;6246961;23;20173;-91
2023/07/13 19:22:52;;;;;;;5.07;2.72;;;21.40;93.40;;;;;;6247085;23;20219;-92
2023/07/13 19:25:20;;;;;;;5.72;3.08;;;21.30;99.40;;;;;;6246746;23;20168;-91
2023/07/13 19:27:49;;;;;;;5.95;2.72;;;21.20;99.90;;;;;;6246170;23;20230;-92
2023/07/13 19:30:16;;;;;;;4.60;1.95;;;21.10;99.90;;;;;;6246773;23;20557;-91
2023/07/13 19:32:46;;;;;;;4.38;1.80;;;21.00;99.90;;;;;;6246456;23;20173;-90
2023/07/13 19:35:13;;;;;;;4.25;1.48;;;20.90;99.90;;;;;;6246930;23;20199;-91
2023/07/13 19:37:40;;;;;;;3.55;1.80;;;20.80;99.90;;;;;;6248287;23;20250;-91
2023/07/13 19:40:19;;;;;;;2.63;1.80;;;20.70;99.90;;;;;;6248737;23;20627;-92
2023/07/13 19:42:46;;;;;;;5.13;1.60;;;20.70;99.90;;;;;;6248988;23;20538;-91
2023/07/13 19:45:18;;;;;;;4.28;1.40;;;20.60;99.90;;;;;;6248867;23;20219;-91
2023/07/13 19:47:49;;;;;;;3.85;1.40;;;20.50;99.90;;;;;;6248845;23;20172;-91
2023/07/13 19:50:17;;;;;;;3.42;1.75;;;20.50;99.90;;;;;;6248606;23;20188;-90
2023/07/13 19:52:51;;;;;;;4.32;1.58;;;20.40;99.90;;;;;;6248660;23;20168;-90
2023/07/13 19:55:21;;;;;;;3.22;1.60;;;20.30;99.90;;;;;;6248418;23;20173;-90
2023/07/13 19:57:49;;;;;;;3.85;1.38;;;20.30;99.90;;;;;;6248499;23;20472;-91
2023/07/13 20:00:18;;;;;;;3.33;1.55;;;20.30;99.90;;;;;;6248260;23;20271;-91
2023/07/13 20:02:47;;;;;;;4.28;1.77;;;20.20;1.00;;;;;;6248129;23;20600;-89
2023/07/13 20:05:16;;;;;;;2.92;1.58;;;20.20;1.00;;;;;;6248341;23;20169;-91
2023/07/13 20:07:43;;;;;;;5.95;1.67;;;20.20;1.00;;;;;;6248130;23;20673;-91
2023/07/13 20:10:23;;;;;;;4.28;2.10;;;20.10;1.00;;;;;;6254080;22;20242;-95
2023/07/13 20:12:51;;;;;;;3.15;1.50;;;20.10;1.00;;;;;;6248543;23;20200;-95
2023/07/13 20:15:21;;;;;;;4.53;1.73;;;20.10;1.00;;;;;;6248033;23;20519;-96
2023/07/13 20:17:52;;;;;;;3.70;1.80;;;20.10;1.00;;;;;;6248505;23;20173;-95
2023/07/13 20:20:25;;;;;;;6.78;1.80;;;20.00;1.00;;;;;;6248458;23;20153;-95
2023/07/13 20:22:53;;;;;;;6.45;2.67;;;20.00;1.00;;;;;;6248647;23;20157;-95
2023/07/13 20:25:24;;;;;;;5.10;1.73;;;20.00;1.00;;;;;;6248151;23;20164;-95
2023/07/13 20:27:53;;;;;;;2.10;1.65;;;20.00;1.00;;;;;;6248143;23;20160;-94
2023/07/13 20:30:20;;;;;;;3.97;2.00;;;19.90;1.00;;;;;;6248478;23;20172;-93
2023/07/13 20:32:48;;;;;;;4.50;1.90;;;19.90;1.00;;;;;;6248288;23;20164;-95
2023/07/13 20:35:29;;;;;;;3.05;1.80;;;19.90;1.00;;;;;;6248528;23;20188;-95
2023/07/13 20:37:57;;;;;;;3.40;1.90;;;19.90;1.00;;;;;;6248574;23;20203;-94
2023/07/13 20:40:27;;;;;;;4.30;1.75;;;19.90;1.00;;;;;;6248346;23;20180;-94
2023/07/13 20:42:54;;;;;;;3.50;1.95;;;19.90;1.00;;;;;;6248202;23;20160;-95
2023/07/13 20:45:23;;;;;;;4.30;1.50;;;19.90;1.00;;;;;;6248214;23;20191;-94
2023/07/13 20:47:54;;;;;;;2.85;1.77;;;19.90;1.00;;;;;;6248059;23;20226;-95
2023/07/13 20:50:24;;;;;;;4.53;2.40;;;19.90;1.00;;;;;;6248094;23;20219;-95
2023/07/13 20:52:54;;;;;;;3.28;1.70;;;19.80;1.00;;;;;;6248303;23;20212;-94
2023/07/13 20:55:24;;;;;;;3.13;1.70;;;19.80;1.00;;;;;;6247871;23;20189;-93
2023/07/13 20:57:51;;;;;;;2.95;1.75;;;19.80;23.50;;;;;;6247987;23;20168;-95
2023/07/13 21:00:21;;;;;;;5.25;2.03;;;19.90;68.80;;;;;;6248124;23;20484;-94
2023/07/13 21:02:50;;;;;;;4.25;1.80;;;19.90;78.70;;;;;;6248447;23;20222;-94
2023/07/13 21:05:21;;;;;;;5.35;1.65;;;19.80;91.10;;;;;;6248347;23;20175;-94
2023/07/13 21:07:49;;;;;;;9.18;1.85;;;19.90;99.90;;;;;;6248464;23;20157;-94
2023/07/13 21:10:18;;;;;;;2.05;1.75;;;19.90;99.90;;;;;;6248139;23;20223;-93
2023/07/13 21:12:48;;;;;;;2.42;1.50;;;19.90;99.90;;;;;;6248360;23;20462;-93
2023/07/13 21:15:17;;;;;;;4.13;2.00;;;19.80;99.90;;;;;;6247805;23;20733;-94
2023/07/13 21:17:46;;;;;;;2.90;1.80;;;19.80;99.90;;;;;;6248364;23;20195;-94
2023/07/13 21:20:23;;;;;;;5.20;1.90;;;19.80;99.90;;;;;;6248078;23;20247;-94
2023/07/13 21:22:50;;;;;;;5.40;1.98;;;19.70;99.90;;;;;;6248322;23;20207;-94
2023/07/13 21:25:19;;;;;;;4.35;1.90;;;19.70;99.90;;;;;;6247545;23;20223;-95
2023/07/13 21:27:49;;;;;;;5.13;1.70;;;19.70;99.90;;;;;;6247962;23;20172;-95
2023/07/13 21:30:18;;;;;;;4.18;2.00;;;19.60;99.90;;;;;;6248396;23;20566;-94
2023/07/13 21:32:47;;;;;;;3.83;2.00;;;19.60;99.90;;;;;;6247959;23;20168;-96
2023/07/13 21:35:29;;;;;;;2.63;1.60;;;19.60;1.00;;;;;;6247548;23;20219;-94
2023/07/13 21:37:57;;;;;;;2.80;1.98;;;19.60;1.00;;;;;;6247966;23;20161;-94
2023/07/13 21:40:26;;;;;;;2.45;1.85;;;19.60;1.00;;;;;;6247737;23;20180;-93
2023/07/13 21:42:53;;;;;;;2.67;1.80;;;19.50;1.00;;;;;;6248210;23;20222;-94
2023/07/13 21:45:23;;;;;;;2.90;1.90;;;19.40;1.00;;;;;;6247603;23;20164;-95
2023/07/13 21:47:50;;;;;;;3.35;1.92;;;19.40;1.00;;;;;;6247489;23;20196;-94
2023/07/13 21:50:18;;;;;;;4.45;2.00;;;19.30;1.00;;;;;;6247938;23;20176;-95
2023/07/13 21:52:47;;;;;;;3.38;1.90;;;19.10;8.00;;;;;;6247723;23;20223;-94
2023/07/13 21:55:16;;;;;;;4.97;2.30;;;19.00;99.90;;;;;;6247541;23;20190;-95
2023/07/13 21:57:45;;;;;;;4.82;1.98;;;18.90;99.90;;;;;;6248112;23;20251;-96
2023/07/13 22:00:21;;;;;;;6.95;2.40;;;18.70;99.90;;;;;;6247702;23;20221;-95
2023/07/13 22:02:49;;;;;;;3.85;2.10;;;18.60;99.90;;;;;;6247732;23;20638;-94
2023/07/13 22:05:17;;;;;;;8.88;4.05;;;18.40;1.00;;;;;;6247815;23;20697;-95
2023/07/13 22:07:46;;;;;;;6.47;5.00;;;18.30;1.00;;;;;;6247701;23;20187;-94
2023/07/13 22:10:19;;;;;;;6.85;3.00;;;18.20;1.00;;;;;;6247458;23;20582;-94
2023/07/13 22:12:47;;;;;;;5.40;2.60;;;18.00;1.00;;;;;;6247742;23;20242;-94
2023/07/13 22:15:16;;;;;;;5.60;2.63;;;18.00;1.00;;;;;;6247577;23;20184;-95
2023/07/13 22:17:46;;;;;;;4.50;2.30;;;17.90;1.00;;;;;;6247219;23;20172;-94
2023/07/13 22:20:23;;;;;;;3.10;2.33;;;17.80;1.00;;;;;;6247250;23;20163;-95
2023/07/13 22:22:52;;;;;;;4.95;2.28;;;17.70;1.00;;;;;;6247515;23;20157;-95
2023/07/13 22:25:19;;;;;;;3.85;2.60;;;17.60;3.30;;;;;;6247750;23;20165;-96
2023/07/13 22:27:46;;;;;;;3.95;2.30;;;17.50;60.40;;;;;;6247669;23;20566;-95
2023/07/13 22:30:16;;;;;;;4.03;2.45;;;17.40;99.90;;;;;;6247651;23;20536;-95
2023/07/13 22:32:44;;;;;;;3.65;2.60;;;17.40;99.90;;;;;;6247468;23;20176;-95
2023/07/13 22:35:15;;;;;;;3.85;2.60;;;17.30;99.90;;;;;;6247497;23;20650;-95
2023/07/13 22:37:42;;;;;;;7.75;2.80;;;17.20;99.90;;;;;;6247658;23;20152;-95
2023/07/13 22:40:16;;;;;;;7.10;2.80;;;17.10;99.90;;;;;;6246897;23;20176;-94
2023/07/13 22:42:44;;;;;;;7.78;2.63;;;17.10;99.90;;;;;;6246894;23;20226;-94
2023/07/13 22:45:11;;;;;;;4.35;2.75;;;17.00;99.90;;;;;;6246875;23;20160;-96
2023/07/13 22:47:40;;;;;;;6.93;2.80;;;16.90;99.90;;;;;;6247635;23;20175;-95
2023/07/13 22:50:17;;;;;;;5.43;3.10;;;16.80;99.90;;;;;;6247787;23;20175;-94
2023/07/13 22:52:45;;;;;;;4.93;2.75;;;16.80;99.90;;;;;;6247220;23;20160;-95
2023/07/13 22:55:20;;;;;;;5.25;2.80;;;16.70;99.90;;;;;;6247294;23;20190;-95
2023/07/13 22:57:49;;;;;;;3.03;2.60;;;16.70;99.90;;;;;;6247403;23;20162;-94
2023/07/13 23:00:18;;;;;;;5.70;2.83;;;16.70;99.90;;;;;;6246904;23;20249;-94
2023/07/13 23:02:46;;;;;;;5.65;2.90;;;16.60;99.90;;;;;;6247617;23;20182;-96
2023/07/13 23:05:17;;;;;;;4.45;2.55;;;16.60;1.00;;;;;;6246921;23;20171;-94
2023/07/13 23:07:44;;;;;;;6.15;2.65;;;16.50;1.00;;;;;;6246853;23;20229;-95
2023/07/13 23:10:18;;;;;;;3.80;2.47;;;16.50;1.00;;;;;;6247121;23;20194;-94
2023/07/13 23:12:45;;;;;;;5.53;3.80;;;16.40;1.00;;;;;;6246692;23;20262;-92
2023/07/13 23:15:18;;;;;;;5.78;3.28;;;16.30;1.00;;;;;;6246906;23;20270;-94
2023/07/13 23:17:45;;;;;;;5.93;3.10;;;16.30;1.00;;;;;;6247255;23;20190;-94
2023/07/13 23:20:24;;;;;;;3.38;2.72;;;16.20;1.00;;;;;;6247253;23;20195;-95
2023/07/13 23:22:51;;;;;;;4.35;2.85;;;16.20;1.00;;;;;;6247284;23;20203;-95
2023/07/13 23:25:20;;;;;;;4.60;2.83;;;16.10;1.00;;;;;;6247085;23;20194;-95
2023/07/13 23:27:50;;;;;;;4.38;2.55;;;16.10;1.00;;;;;;6246888;23;20253;-95
2023/07/13 23:30:18;;;;;;;3.10;2.80;;;16.00;1.00;;;;;;6247679;23;20174;-95
2023/07/13 23:32:46;;;;;;;3.92;2.72;;;16.00;1.00;;;;;;6247281;23;20180;-95
2023/07/13 23:35:14;;;;;;;4.03;2.30;;;15.90;9.20;;;;;;6246981;23;20233;-94
2023/07/13 23:37:42;;;;;;;4.93;2.53;;;15.90;92.10;;;;;;6247326;23;20233;-96
2023/07/13 23:40:15;;;;;;;4.25;2.85;;;15.90;99.90;;;;;;6247261;23;20485;-94
2023/07/13 23:42:44;;;;;;;6.95;2.83;;;15.80;99.90;;;;;;6246937;23;20703;-95
2023/07/13 23:45:15;;;;;;;3.83;2.92;;;15.80;99.90;;;;;;6247160;23;20170;-95
2023/07/13 23:47:44;;;;;;;3.80;2.65;;;15.70;99.90;;;;;;6247124;23;20160;-94
2023/07/13 23:50:14;;;;;;;8.13;2.85;;;15.70;99.90;;;;;;6246496;23;20171;-95
2023/07/13 23:52:41;;;;;;;3.63;2.72;;;15.70;99.90;;;;;;6247179;23;20169;-94
2023/07/13 23:55:16;;;;;;;3.88;2.70;;;15.60;99.90;;;;;;6247148;23;20174;-96
2023/07/13 23:57:46;;;;;;;3.13;2.83;;;15.60;99.90;;;;;;6247412;23;20225;-95
